createdAt,value
2018-07-27T00:00:25.531Z,34.81
2018-07-27T00:02:02.594Z,34.34
2018-07-27T00:03:39.160Z,34.30
2018-07-27T00:05:15.686Z,34.13
2018-07-27T00:06:53.645Z,34.62
2018-07-27T00:08:37.033Z,34.91
2018-07-27T00:10:18.459Z,34.79
2018-07-27T00:11:55.992Z,34.22
2018-07-27T00:13:34.492Z,34.29
2018-07-27T00:15:12.464Z,34.73
2018-07-27T00:16:52.553Z,34.67
2018-07-27T00:18:32.178Z,34.96
2018-07-27T00:20:10.823Z,34.39
2018-07-27T00:21:50.389Z,34.23
2018-07-27T00:23:26.866Z,34.77
2018-07-27T00:25:05.638Z,34.22
2018-07-27T00:26:43.656Z,34.82
2018-07-27T00:28:22.525Z,34.98
2018-07-27T00:30:00.952Z,34.26
2018-07-27T00:31:53.691Z,34.95
2018-07-27T00:33:30.523Z,34.78
2018-07-27T00:35:09.071Z,34.61
2018-07-27T00:36:48.942Z,34.61
2018-07-27T00:38:25.847Z,34.82
2018-07-27T00:40:02.798Z,34.73
2018-07-27T00:41:45.193Z,34.68
2018-07-27T00:43:26.523Z,34.98
2018-07-27T00:45:03.478Z,35.16
2018-07-27T00:46:43.483Z,35.15
2018-07-27T00:48:21.184Z,35.22
2018-07-27T00:50:01.946Z,34.47
2018-07-27T00:51:38.525Z,34.73
2018-07-27T00:53:15.909Z,35.11
2018-07-27T00:54:53.003Z,34.57
2018-07-27T00:56:30.935Z,35.31
2018-07-27T00:58:08.363Z,35.32
2018-07-27T00:59:46.637Z,34.63
2018-07-27T01:01:23.222Z,34.65
2018-07-27T01:03:01.068Z,35.12
2018-07-27T01:04:38.372Z,34.40
2018-07-27T01:06:16.681Z,35.01
2018-07-27T01:07:52.849Z,34.70
2018-07-27T01:09:32.535Z,35.42
2018-07-27T01:11:09.833Z,35.15
2018-07-27T01:12:46.432Z,34.69
2018-07-27T01:14:24.471Z,35.09
2018-07-27T01:16:01.688Z,34.96
2018-07-27T01:17:39.317Z,35.21
2018-07-27T01:19:18.397Z,35.49
2018-07-27T01:20:55.725Z,35.26
2018-07-27T01:22:33.761Z,34.61
2018-07-27T01:24:12.004Z,35.14
2018-07-27T01:25:48.630Z,35.16
2018-07-27T01:27:26.774Z,35.26
2018-07-27T01:29:03.696Z,35.40
2018-07-27T01:30:40.571Z,35.05
2018-07-27T01:32:17.044Z,34.89
2018-07-27T01:33:54.537Z,35.53
2018-07-27T01:35:31.393Z,35.28
2018-07-27T01:37:09.272Z,35.40
2018-07-27T01:38:47.705Z,34.96
2018-07-27T01:40:24.295Z,35.43
2018-07-27T01:42:02.472Z,34.93
2018-07-27T01:43:41.967Z,35.52
2018-07-27T01:45:18.952Z,34.80
2018-07-27T01:46:56.374Z,35.45
2018-07-27T01:48:34.064Z,35.14
2018-07-27T01:50:10.568Z,35.55
2018-07-27T01:51:47.629Z,35.28
2018-07-27T01:53:24.230Z,35.25
2018-07-27T01:55:02.063Z,35.48
2018-07-27T01:56:39.656Z,35.11
2018-07-27T01:58:16.105Z,34.79
2018-07-27T01:59:53.131Z,34.77
2018-07-27T02:01:30.119Z,35.31
2018-07-27T02:03:06.801Z,35.47
2018-07-27T02:04:43.455Z,35.16
2018-07-27T02:06:23.641Z,34.99
2018-07-27T02:08:01.564Z,35.83
2018-07-27T02:09:39.784Z,35.31
2018-07-27T02:11:20.405Z,34.91
2018-07-27T02:12:58.861Z,35.40
2018-07-27T02:14:36.304Z,35.03
2018-07-27T02:16:17.327Z,35.22
2018-07-27T02:17:54.845Z,35.49
2018-07-27T02:19:31.972Z,35.31
2018-07-27T02:21:10.168Z,35.66
2018-07-27T02:22:46.563Z,35.38
2018-07-27T02:24:23.001Z,35.72
2018-07-27T02:26:00.116Z,35.02
2018-07-27T02:27:36.691Z,35.06
2018-07-27T02:29:15.333Z,35.78
2018-07-27T02:30:53.076Z,35.17
2018-07-27T02:32:31.660Z,35.17
2018-07-27T02:34:09.320Z,35.23
2018-07-27T02:35:47.227Z,35.35
2018-07-27T02:37:25.493Z,35.63
2018-07-27T02:39:02.836Z,35.93
2018-07-27T02:40:40.041Z,35.22
2018-07-27T02:42:17.545Z,35.96
2018-07-27T02:43:54.930Z,35.37
2018-07-27T02:45:31.774Z,35.96
2018-07-27T02:47:08.253Z,35.98
2018-07-27T02:48:44.757Z,35.29
2018-07-27T02:50:21.617Z,35.97
2018-07-27T02:51:59.612Z,35.54
2018-07-27T02:53:36.848Z,36.06
2018-07-27T02:55:12.984Z,35.27
2018-07-27T02:56:49.283Z,35.76
2018-07-27T02:58:26.403Z,35.86
2018-07-27T03:00:03.753Z,35.58
2018-07-27T03:01:40.699Z,36.01
2018-07-27T03:03:17.308Z,35.62
2018-07-27T03:04:54.913Z,35.89
2018-07-27T03:06:31.384Z,35.61
2018-07-27T03:08:08.974Z,35.65
2018-07-27T03:09:46.364Z,35.76
2018-07-27T03:11:23.372Z,36.12
2018-07-27T03:13:00.272Z,35.80
2018-07-27T03:14:37.162Z,35.70
2018-07-27T03:16:13.912Z,36.18
2018-07-27T03:17:51.072Z,36.19
2018-07-27T03:19:27.804Z,35.90
2018-07-27T03:21:04.559Z,35.75
2018-07-27T03:22:41.504Z,36.18
2018-07-27T03:24:20.033Z,35.50
2018-07-27T03:25:57.682Z,35.74
2018-07-27T03:27:34.472Z,35.96
2018-07-27T03:29:11.889Z,35.70
2018-07-27T03:30:49.110Z,35.88
2018-07-27T03:32:25.601Z,35.87
2018-07-27T03:34:02.068Z,35.59
2018-07-27T03:35:39.409Z,36.22
2018-07-27T03:37:16.759Z,35.94
2018-07-27T03:38:53.203Z,35.80
2018-07-27T03:40:29.485Z,35.70
2018-07-27T03:42:05.876Z,35.98
2018-07-27T03:43:43.369Z,35.84
2018-07-27T03:45:20.074Z,35.67
2018-07-27T03:46:56.734Z,36.05
2018-07-27T03:48:33.811Z,35.54
2018-07-27T03:50:11.299Z,36.04
2018-07-27T03:51:48.342Z,36.19
2018-07-27T03:53:24.733Z,36.32
2018-07-27T03:55:01.237Z,36.31
2018-07-27T03:56:38.245Z,35.84
2018-07-27T03:58:14.641Z,35.95
2018-07-27T03:59:51.811Z,35.74
2018-07-27T04:01:28.697Z,35.71
2018-07-27T04:03:05.591Z,36.47
2018-07-27T04:04:42.042Z,36.07
2018-07-27T04:06:18.487Z,36.02
2018-07-27T04:07:55.937Z,36.23
2018-07-27T04:09:33.507Z,36.57
2018-07-27T04:11:10.329Z,36.36
2018-07-27T04:12:46.702Z,36.15
2018-07-27T04:14:23.146Z,36.54
2018-07-27T04:16:00.211Z,36.30
2018-07-27T04:17:37.282Z,36.39
2018-07-27T04:19:13.772Z,36.44
2018-07-27T04:20:50.272Z,36.50
2018-07-27T04:22:26.749Z,36.11
2018-07-27T04:24:03.242Z,36.26
2018-07-27T04:25:40.381Z,35.88
2018-07-27T04:27:17.655Z,36.67
2018-07-27T04:28:54.515Z,36.49
2018-07-27T04:30:31.294Z,36.45
2018-07-27T04:32:09.425Z,36.95
2018-07-27T04:33:45.952Z,36.35
2018-07-27T04:35:23.003Z,36.07
2018-07-27T04:37:00.088Z,36.34
2018-07-27T04:38:36.544Z,36.46
2018-07-27T04:40:13.876Z,36.63
2018-07-27T04:41:51.177Z,36.68
2018-07-27T04:43:27.818Z,36.37
2018-07-27T04:45:05.265Z,36.97
2018-07-27T04:46:41.991Z,36.91
2018-07-27T04:48:19.440Z,36.33
2018-07-27T04:49:55.961Z,36.91
2018-07-27T04:51:32.505Z,36.36
2018-07-27T04:53:08.926Z,36.68
2018-07-27T04:54:45.726Z,36.96
2018-07-27T04:56:22.132Z,36.49
2018-07-27T04:57:59.473Z,37.05
2018-07-27T04:59:35.893Z,36.36
2018-07-27T05:01:13.054Z,36.40
2018-07-27T05:02:49.482Z,37.10
2018-07-27T05:04:30.020Z,37.06
2018-07-27T05:06:07.250Z,36.93
2018-07-27T05:07:44.667Z,36.40
2018-07-27T05:09:23.883Z,36.59
2018-07-27T05:11:01.463Z,37.11
2018-07-27T05:12:39.365Z,36.39
2018-07-27T05:14:16.540Z,36.65
2018-07-27T05:15:52.948Z,37.17
2018-07-27T05:17:29.413Z,37.21
2018-07-27T05:19:06.589Z,37.23
2018-07-27T05:20:44.535Z,36.85
2018-07-27T05:22:20.959Z,36.47
2018-07-27T05:23:57.551Z,36.63
2018-07-27T05:25:33.956Z,36.45
2018-07-27T05:27:12.554Z,37.40
2018-07-27T05:28:49.110Z,37.39
2018-07-27T05:30:28.498Z,36.98
2018-07-27T05:32:04.984Z,36.79
2018-07-27T05:33:42.754Z,36.78
2018-07-27T05:35:19.256Z,36.33
2018-07-27T05:37:00.714Z,36.45
2018-07-27T05:38:38.387Z,36.85
2018-07-27T05:40:15.204Z,36.84
2018-07-27T05:41:55.909Z,36.37
2018-07-27T05:43:33.135Z,36.79
2018-07-27T05:45:09.713Z,36.82
2018-07-27T05:46:46.776Z,36.55
2018-07-27T05:48:24.434Z,36.25
2018-07-27T05:50:01.514Z,36.59
2018-07-27T05:51:38.781Z,36.55
2018-07-27T05:53:15.245Z,36.25
2018-07-27T05:54:51.626Z,36.89
2018-07-27T05:56:28.497Z,36.27
2018-07-27T05:58:05.015Z,36.25
2018-07-27T05:59:41.421Z,36.94
2018-07-27T06:01:17.944Z,36.94
2018-07-27T06:02:54.469Z,36.58
2018-07-27T06:04:31.464Z,36.26
2018-07-27T06:06:08.346Z,36.84
2018-07-27T06:07:44.891Z,36.63
2018-07-27T06:09:21.380Z,36.23
2018-07-27T06:10:59.094Z,36.14
2018-07-27T06:12:35.216Z,36.62
2018-07-27T06:14:12.063Z,36.50
2018-07-27T06:15:48.104Z,37.06
2018-07-27T06:17:27.505Z,36.14
2018-07-27T06:19:04.090Z,36.63
2018-07-27T06:20:41.425Z,36.13
2018-07-27T06:22:17.972Z,36.17
2018-07-27T06:23:54.845Z,36.59
2018-07-27T06:25:32.326Z,36.07
2018-07-27T06:27:08.867Z,36.57
2018-07-27T06:28:45.322Z,36.12
2018-07-27T06:30:23.701Z,36.44
2018-07-27T06:32:02.627Z,36.85
2018-07-27T06:33:40.003Z,36.63
2018-07-27T06:35:17.899Z,36.78
2018-07-27T06:36:56.305Z,36.26
2018-07-27T06:38:33.782Z,36.11
2018-07-27T06:40:10.420Z,35.84
2018-07-27T06:41:50.333Z,36.07
2018-07-27T06:43:26.885Z,35.97
2018-07-27T06:45:04.066Z,36.45
2018-07-27T06:46:40.685Z,36.61
2018-07-27T06:48:19.421Z,35.89
2018-07-27T06:49:56.230Z,36.50
2018-07-27T06:51:33.307Z,36.41
2018-07-27T06:53:10.529Z,36.44
2018-07-27T06:54:47.084Z,36.05
2018-07-27T06:56:23.892Z,35.93
2018-07-27T06:58:00.417Z,36.20
2018-07-27T06:59:36.830Z,35.79
2018-07-27T07:01:13.002Z,35.69
2018-07-27T07:02:50.604Z,35.71
2018-07-27T07:04:27.053Z,36.33
2018-07-27T07:06:03.339Z,35.65
2018-07-27T07:07:39.895Z,35.75
2018-07-27T07:09:16.331Z,36.09
2018-07-27T07:10:52.830Z,35.64
2018-07-27T07:12:29.323Z,35.31
2018-07-27T07:14:06.520Z,35.70
2018-07-27T07:15:43.551Z,36.11
2018-07-27T07:17:20.039Z,35.97
2018-07-27T07:18:57.185Z,35.47
2018-07-27T07:20:33.648Z,35.20
2018-07-27T07:22:11.381Z,35.95
2018-07-27T07:23:47.818Z,35.82
2018-07-27T07:25:24.335Z,35.11
2018-07-27T07:27:02.504Z,35.57
2018-07-27T07:28:42.597Z,35.63
2018-07-27T07:30:20.613Z,35.05
2018-07-27T07:31:56.888Z,35.77
2018-07-27T07:33:32.780Z,35.13
2018-07-27T07:35:11.294Z,35.29
2018-07-27T07:36:47.817Z,35.29
2018-07-27T07:38:24.292Z,35.55
2018-07-27T07:40:01.630Z,35.52
2018-07-27T07:41:38.841Z,35.09
2018-07-27T07:43:17.823Z,34.99
2018-07-27T07:44:55.763Z,35.18
2018-07-27T07:46:32.528Z,34.73
2018-07-27T07:48:10.728Z,35.50
2018-07-27T07:49:47.298Z,35.36
2018-07-27T07:51:24.874Z,35.19
2018-07-27T07:53:01.326Z,34.95
2018-07-27T07:54:39.024Z,35.12
2018-07-27T07:56:16.268Z,35.19
2018-07-27T07:57:53.498Z,35.14
2018-07-27T07:59:34.529Z,34.89
2018-07-27T08:01:11.200Z,34.39
2018-07-27T08:02:48.870Z,35.00
2018-07-27T08:04:26.517Z,34.46
2018-07-27T08:06:03.866Z,34.33
2018-07-27T08:07:40.716Z,34.86
2018-07-27T08:09:19.415Z,34.58
2018-07-27T08:11:01.313Z,34.80
2018-07-27T08:12:38.919Z,34.86
2018-07-27T08:14:16.043Z,34.83
2018-07-27T08:15:52.566Z,34.73
2018-07-27T08:17:31.842Z,34.46
2018-07-27T08:19:09.002Z,34.53
2018-07-27T08:20:47.575Z,34.20
2018-07-27T08:22:24.891Z,34.06
2018-07-27T08:24:01.361Z,34.38
2018-07-27T08:26:48.376Z,34.68
2018-07-27T08:28:41.639Z,34.11
2018-07-27T08:30:20.829Z,34.15
2018-07-27T08:32:01.591Z,34.38
2018-07-27T08:33:38.111Z,33.92
2018-07-27T08:35:14.672Z,33.65
2018-07-27T08:36:51.669Z,33.98
2018-07-27T08:38:28.528Z,34.28
2018-07-27T08:40:05.691Z,34.14
2018-07-27T08:41:42.192Z,33.58
2018-07-27T08:43:19.149Z,33.57
2018-07-27T08:44:57.669Z,34.10
2018-07-27T08:46:35.463Z,33.87
2018-07-27T08:48:12.768Z,34.36
2018-07-27T08:49:49.207Z,33.78
2018-07-27T08:51:26.792Z,33.96
2018-07-27T08:53:03.351Z,33.94
2018-07-27T08:54:40.398Z,33.61
2018-07-27T08:56:17.472Z,33.85
2018-07-27T08:57:55.397Z,33.66
2018-07-27T08:59:31.924Z,33.82
2018-07-27T09:01:09.335Z,33.52
2018-07-27T09:02:47.631Z,33.36
2018-07-27T09:04:24.762Z,33.83
2018-07-27T09:06:01.275Z,33.49
2018-07-27T09:07:37.815Z,33.52
2018-07-27T09:09:16.183Z,33.80
2018-07-27T09:10:55.456Z,33.53
2018-07-27T09:12:33.557Z,33.00
2018-07-27T09:14:10.157Z,32.98
2018-07-27T09:17:34.875Z,32.84
2018-07-27T09:19:11.997Z,32.80
2018-07-27T09:20:48.636Z,32.95
2018-07-27T09:22:25.277Z,33.13
2018-07-27T09:24:01.903Z,33.44
2018-07-27T09:25:40.089Z,32.79
2018-07-27T09:27:17.307Z,32.67
2018-07-27T09:28:57.912Z,33.08
2018-07-27T09:30:36.590Z,32.69
2018-07-27T09:32:19.096Z,33.28
2018-07-27T09:33:57.365Z,33.25
2018-07-27T09:35:38.932Z,32.69
2018-07-27T09:38:46.551Z,32.50
2018-07-27T09:40:23.717Z,32.44
2018-07-27T09:42:00.169Z,32.32
2018-07-27T09:43:38.543Z,32.89
2018-07-27T09:45:16.740Z,32.98
2018-07-27T09:46:53.542Z,32.50
2018-07-27T09:48:29.979Z,32.53
2018-07-27T09:50:07.672Z,32.59
2018-07-27T09:51:44.376Z,32.47
2018-07-27T09:53:21.543Z,32.56
2018-07-27T09:54:59.433Z,32.53
2018-07-27T09:56:37.273Z,32.16
2018-07-27T09:58:14.272Z,32.83
2018-07-27T09:59:51.629Z,32.32
2018-07-27T10:01:29.648Z,32.45
2018-07-27T10:03:07.636Z,32.45
2018-07-27T10:04:45.343Z,31.99
2018-07-27T10:06:24.509Z,32.27
2018-07-27T10:08:01.733Z,32.40
2018-07-27T10:09:41.912Z,32.53
2018-07-27T10:11:19.330Z,32.36
2018-07-27T10:12:56.693Z,31.88
2018-07-27T10:14:34.336Z,31.92
2018-07-27T10:16:12.843Z,32.04
2018-07-27T10:17:51.611Z,31.73
2018-07-27T10:19:28.945Z,32.11
2018-07-27T10:21:06.506Z,31.69
2018-07-27T10:22:43.300Z,32.22
2018-07-27T10:24:20.729Z,32.26
2018-07-27T10:25:57.410Z,32.22
2018-07-27T10:27:38.435Z,32.17
2018-07-27T10:29:15.270Z,32.22
2018-07-27T10:30:53.201Z,31.35
2018-07-27T10:32:30.716Z,31.71
2018-07-27T10:34:07.252Z,31.58
2018-07-27T10:35:45.646Z,31.69
2018-07-27T10:37:25.888Z,31.78
2018-07-27T10:39:08.534Z,31.42
2018-07-27T10:40:46.616Z,31.49
2018-07-27T10:42:25.198Z,31.62
2018-07-27T10:44:04.529Z,31.33
2018-07-27T10:45:42.980Z,31.99
2018-07-27T10:47:21.046Z,31.15
2018-07-27T10:49:00.071Z,31.14
2018-07-27T10:50:37.422Z,31.09
2018-07-27T10:52:14.638Z,31.57
2018-07-27T10:53:51.051Z,31.59
2018-07-27T10:55:31.242Z,31.36
2018-07-27T10:57:10.743Z,31.37
2018-07-27T10:58:52.905Z,31.20
2018-07-27T11:00:30.620Z,31.14
2018-07-27T11:02:07.776Z,31.56
2018-07-27T11:03:44.358Z,30.86
2018-07-27T11:05:24.696Z,31.39
2018-07-27T11:07:01.086Z,30.93
2018-07-27T11:08:40.237Z,31.37
2018-07-27T11:10:19.729Z,31.05
2018-07-27T11:11:57.500Z,30.54
2018-07-27T11:13:35.981Z,31.35
2018-07-27T11:15:16.239Z,31.25
2018-07-27T11:16:53.774Z,30.58
2018-07-27T11:18:31.524Z,30.91
2018-07-27T11:20:09.940Z,30.78
2018-07-27T11:21:48.904Z,30.62
2018-07-27T11:23:25.361Z,30.97
2018-07-27T11:25:05.872Z,30.69
2018-07-27T11:26:42.449Z,30.39
2018-07-27T11:28:20.725Z,30.48
2018-07-27T11:29:57.286Z,30.30
2018-07-27T11:31:38.879Z,30.22
2018-07-27T11:33:16.271Z,30.73
2018-07-27T11:34:52.723Z,30.28
2018-07-27T11:36:31.667Z,30.77
2018-07-27T11:38:12.238Z,30.71
2018-07-27T11:39:51.038Z,30.59
2018-07-27T11:41:28.320Z,30.90
2018-07-27T11:43:06.579Z,30.09
2018-07-27T11:44:44.339Z,30.09
2018-07-27T11:46:23.686Z,29.97
2018-07-27T11:48:03.676Z,29.97
2018-07-27T11:49:40.256Z,30.47
2018-07-27T11:51:16.654Z,30.39
2018-07-27T11:52:54.079Z,29.78
2018-07-27T11:54:30.564Z,30.40
2018-07-27T11:56:07.672Z,30.12
2018-07-27T11:57:45.655Z,30.19
2018-07-27T11:59:26.334Z,29.97
2018-07-27T12:01:03.998Z,29.69
2018-07-27T12:02:42.220Z,29.87
2018-07-27T12:04:18.941Z,30.13
2018-07-27T12:05:57.918Z,29.84
2018-07-27T12:07:36.777Z,29.97
2018-07-27T12:10:54.746Z,30.16
2018-07-27T12:12:32.666Z,30.01
2018-07-27T12:14:09.441Z,29.94
2018-07-27T12:15:51.472Z,29.86
2018-07-27T12:17:31.375Z,29.85
2018-07-27T12:19:09.209Z,29.37
2018-07-27T12:20:47.017Z,29.37
2018-07-27T12:22:25.129Z,29.28
2018-07-27T12:24:02.025Z,29.75
2018-07-27T12:25:39.874Z,29.48
2018-07-27T12:27:17.251Z,29.16
2018-07-27T12:28:55.125Z,29.35
2018-07-27T12:30:32.443Z,29.18
2018-07-27T12:32:10.552Z,29.62
2018-07-27T12:33:49.316Z,29.03
2018-07-27T12:35:37.240Z,29.05
2018-07-27T12:37:14.268Z,29.00
2018-07-27T12:38:51.578Z,29.20
2018-07-27T12:40:31.192Z,29.46
2018-07-27T12:42:11.661Z,29.02
2018-07-27T12:43:50.836Z,28.81
2018-07-27T12:45:30.721Z,28.82
2018-07-27T12:47:07.754Z,28.56
2018-07-27T12:48:46.440Z,28.85
2018-07-27T12:50:23.823Z,29.17
2018-07-27T12:52:02.324Z,28.57
2018-07-27T12:53:40.587Z,28.59
2018-07-27T12:55:17.228Z,28.66
2018-07-27T12:56:58.812Z,28.56
2018-07-27T12:58:35.916Z,28.44
2018-07-27T13:00:14.816Z,28.52
2018-07-27T13:01:52.360Z,29.05
2018-07-27T13:03:32.329Z,28.64
2018-07-27T13:05:13.245Z,28.37
2018-07-27T13:06:52.028Z,28.33
2018-07-27T13:08:29.385Z,28.33
2018-07-27T13:12:03.066Z,28.75
2018-07-27T13:13:41.180Z,28.25
2018-07-27T13:15:18.251Z,28.76
2018-07-27T13:17:09.140Z,28.27
2018-07-27T13:18:46.121Z,28.59
2018-07-27T13:20:23.277Z,28.57
2018-07-27T13:22:00.601Z,28.55
2018-07-27T13:25:10.971Z,28.54
2018-07-27T13:26:47.628Z,28.06
2018-07-27T13:28:24.238Z,28.40
2018-07-27T13:30:05.435Z,28.46
2018-07-27T13:31:54.603Z,28.05
2018-07-27T13:33:34.570Z,28.14
2018-07-27T13:36:52.422Z,27.88
2018-07-27T13:38:30.383Z,27.75
2018-07-27T13:40:09.606Z,28.29
2018-07-27T13:41:51.173Z,27.62
2018-07-27T13:43:29.054Z,27.50
2018-07-27T13:45:09.873Z,28.19
2018-07-27T13:46:47.679Z,28.03
2018-07-27T13:48:25.503Z,28.18
2018-07-27T13:50:02.131Z,28.03
2018-07-27T13:51:39.110Z,27.84
2018-07-27T13:53:17.546Z,28.07
2018-07-27T13:54:55.771Z,28.04
2018-07-27T13:56:32.383Z,27.37
2018-07-27T13:58:09.133Z,27.89
2018-07-27T13:59:50.854Z,27.40
2018-07-27T14:01:28.507Z,27.69
2018-07-27T14:03:06.664Z,27.80
2018-07-27T14:04:47.054Z,27.28
2018-07-27T14:06:24.421Z,27.10
2018-07-27T14:08:05.251Z,27.79
2018-07-27T14:09:44.357Z,27.27
2018-07-27T14:11:21.766Z,27.70
2018-07-27T14:12:59.488Z,27.20
2018-07-27T14:14:36.097Z,27.22
2018-07-27T14:16:12.886Z,27.62
2018-07-27T14:17:50.540Z,27.46
2018-07-27T14:19:28.086Z,27.05
2018-07-27T14:21:06.114Z,27.47
2018-07-27T14:22:42.782Z,27.54
2018-07-27T14:24:22.444Z,26.94
2018-07-27T14:25:59.814Z,27.25
2018-07-27T14:27:40.011Z,27.47
2018-07-27T14:29:17.138Z,27.25
2018-07-27T14:30:54.970Z,26.95
2018-07-27T14:32:32.924Z,27.28
2018-07-27T14:34:11.321Z,26.77
2018-07-27T14:35:49.170Z,26.80
2018-07-27T14:37:26.547Z,27.17
2018-07-27T14:39:03.878Z,27.22
2018-07-27T14:40:40.430Z,27.18
2018-07-27T14:42:18.677Z,26.66
2018-07-27T14:43:56.471Z,26.59
2018-07-27T14:45:34.066Z,26.97
2018-07-27T14:47:12.678Z,27.04
2018-07-27T14:48:51.478Z,26.56
2018-07-27T14:50:28.952Z,26.59
2018-07-27T14:52:06.761Z,26.60
2018-07-27T14:53:43.322Z,26.54
2018-07-27T14:55:21.255Z,26.96
2018-07-27T14:56:57.804Z,26.45
2018-07-27T14:58:37.169Z,26.88
2018-07-27T15:00:18.463Z,26.84
2018-07-27T15:01:56.479Z,26.29
2018-07-27T15:03:35.685Z,26.75
2018-07-27T15:05:14.091Z,26.69
2018-07-27T15:06:54.332Z,26.54
2018-07-27T15:08:31.526Z,26.62
2018-07-27T15:10:14.373Z,26.76
2018-07-27T15:11:55.847Z,26.25
2018-07-27T15:13:35.995Z,26.59
2018-07-27T15:15:21.690Z,26.04
2018-07-27T15:17:02.615Z,26.09
2018-07-27T15:18:43.143Z,26.60
2018-07-27T15:20:23.548Z,26.01
2018-07-27T15:22:03.459Z,26.44
2018-07-27T15:23:41.473Z,26.02
2018-07-27T15:25:18.016Z,25.93
2018-07-27T15:26:54.497Z,25.88
2018-07-27T15:28:33.644Z,26.39
2018-07-27T15:30:22.268Z,25.82
2018-07-27T15:32:02.131Z,26.34
2018-07-27T15:33:39.684Z,26.20
2018-07-27T15:35:22.651Z,26.27
2018-07-27T15:36:59.197Z,25.67
2018-07-27T15:38:36.382Z,26.21
2018-07-27T15:41:50.247Z,26.17
2018-07-27T15:43:27.339Z,26.14
2018-07-27T15:45:05.547Z,25.62
2018-07-27T15:46:47.492Z,26.08
2018-07-27T15:48:26.356Z,26.04
2018-07-27T15:50:04.710Z,26.17
2018-07-27T15:51:46.315Z,26.08
2018-07-27T15:53:22.676Z,26.05
2018-07-27T15:55:01.600Z,25.46
2018-07-27T15:56:38.956Z,25.84
2018-07-27T15:58:16.684Z,25.61
2018-07-27T16:01:37.913Z,25.92
2018-07-27T16:03:14.457Z,25.30
2018-07-27T16:04:54.032Z,25.37
2018-07-27T16:06:31.304Z,25.33
2018-07-27T16:08:09.998Z,25.18
2018-07-27T16:09:47.590Z,25.35
2018-07-27T16:11:25.471Z,25.30
2018-07-27T16:13:07.195Z,25.18
2018-07-27T16:14:46.636Z,25.33
2018-07-27T16:16:27.587Z,25.10
2018-07-27T16:18:04.700Z,25.32
2018-07-27T16:19:41.938Z,25.61
2018-07-27T16:22:49.460Z,25.58
2018-07-27T16:24:31.829Z,25.33
2018-07-27T16:26:10.740Z,25.56
2018-07-27T16:27:47.858Z,24.95
2018-07-27T16:29:28.180Z,25.24
2018-07-27T16:31:06.839Z,24.92
2018-07-27T16:32:45.145Z,24.91
2018-07-27T16:34:22.388Z,25.42
2018-07-27T16:35:59.264Z,24.83
2018-07-27T16:37:36.727Z,25.18
2018-07-27T16:39:13.313Z,24.75
2018-07-27T16:40:58.177Z,24.77
2018-07-27T16:42:40.775Z,25.28
2018-07-27T16:44:17.535Z,24.75
2018-07-27T16:45:54.345Z,24.99
2018-07-27T16:47:32.238Z,25.16
2018-07-27T16:49:09.282Z,25.00
2018-07-27T16:50:46.853Z,24.65
2018-07-27T16:52:23.454Z,25.00
2018-07-27T16:54:00.016Z,24.59
2018-07-27T16:55:37.015Z,24.89
2018-07-27T16:57:15.210Z,25.09
2018-07-27T16:58:52.035Z,24.53
2018-07-27T17:00:29.383Z,25.03
2018-07-27T17:02:05.988Z,24.94
2018-07-27T17:03:44.266Z,24.43
2018-07-27T17:05:28.364Z,24.61
2018-07-27T17:07:09.141Z,24.41
2018-07-27T17:08:47.361Z,24.39
2018-07-27T17:10:25.652Z,24.86
2018-07-27T17:12:05.029Z,24.34
2018-07-27T17:13:41.640Z,24.83
2018-07-27T17:15:20.200Z,24.71
2018-07-27T17:16:57.544Z,24.29
2018-07-27T17:18:35.998Z,24.32
2018-07-27T17:20:14.538Z,24.49
2018-07-27T17:21:53.590Z,24.26
2018-07-27T17:23:34.752Z,24.69
2018-07-27T17:25:10.889Z,24.21
2018-07-27T17:26:50.623Z,24.20
2018-07-27T17:28:30.040Z,24.67
2018-07-27T17:31:53.686Z,24.59
2018-07-27T17:33:31.198Z,24.61
2018-07-27T17:35:17.675Z,24.43
2018-07-27T17:36:56.467Z,24.55
2018-07-27T17:38:36.567Z,24.52
2018-07-27T17:40:16.526Z,24.04
2018-07-27T17:41:58.099Z,24.01
2018-07-27T17:43:48.643Z,23.97
2018-07-27T17:45:29.495Z,23.91
2018-07-27T17:47:08.249Z,23.95
2018-07-27T17:48:45.323Z,24.31
2018-07-27T17:50:33.654Z,23.85
2018-07-27T17:52:25.734Z,24.37
2018-07-27T17:54:07.573Z,23.85
2018-07-27T17:57:33.931Z,23.83
2018-07-27T17:59:11.513Z,24.33
2018-07-27T18:02:26.851Z,23.71
2018-07-27T18:04:05.130Z,23.83
2018-07-27T18:05:46.500Z,23.79
2018-07-27T18:07:24.083Z,23.60
2018-07-27T18:09:03.142Z,23.71
2018-07-27T18:10:42.297Z,24.23
2018-07-27T18:12:21.491Z,24.09
2018-07-27T18:14:02.812Z,23.67
2018-07-27T18:15:39.606Z,24.14
2018-07-27T18:17:16.708Z,24.11
2018-07-27T18:18:54.568Z,23.87
2018-07-27T18:20:31.854Z,23.83
2018-07-27T18:22:08.543Z,23.60
2018-07-27T18:23:51.101Z,23.83
2018-07-27T18:25:28.848Z,24.10
2018-07-27T18:27:06.573Z,23.76
2018-07-27T18:28:47.145Z,23.53
2018-07-27T18:30:26.956Z,23.50
2018-07-27T18:32:03.729Z,23.49
2018-07-27T18:33:40.823Z,23.97
2018-07-27T18:35:19.238Z,23.37
2018-07-27T18:37:00.556Z,23.95
2018-07-27T18:38:38.749Z,24.01
2018-07-27T18:40:17.324Z,23.99
2018-07-27T18:42:00.805Z,24.03
2018-07-27T18:43:39.399Z,23.55
2018-07-27T18:45:24.627Z,23.67
2018-07-27T18:47:01.797Z,23.50
2018-07-27T18:48:39.631Z,23.33
2018-07-27T18:50:16.496Z,23.74
2018-07-27T18:51:53.626Z,23.77
2018-07-27T18:53:30.082Z,23.27
2018-07-27T18:55:08.851Z,23.17
2018-07-27T18:57:17.541Z,23.15
2018-07-27T18:58:58.585Z,23.97
2018-07-27T19:00:35.270Z,23.53
2018-07-27T19:02:14.463Z,23.05
2018-07-27T19:03:51.000Z,23.20
2018-07-27T19:05:29.970Z,23.17
2018-07-27T19:07:07.540Z,24.01
2018-07-27T19:08:44.111Z,23.31
2018-07-27T19:10:22.823Z,23.77
2018-07-27T19:11:59.410Z,23.52
2018-07-27T19:13:37.231Z,23.99
2018-07-27T19:15:16.789Z,23.92
2018-07-27T19:16:56.544Z,23.95
2018-07-27T19:18:34.619Z,23.63
2018-07-27T19:20:13.390Z,23.39
2018-07-27T19:21:49.841Z,23.75
2018-07-27T19:23:26.861Z,23.47
2018-07-27T19:25:06.217Z,23.82
2018-07-27T19:26:44.830Z,23.22
2018-07-27T19:28:24.208Z,23.82
2018-07-27T19:30:01.360Z,24.01
2018-07-27T19:31:39.586Z,23.36
2018-07-27T19:33:16.370Z,24.00
2018-07-27T19:34:52.900Z,23.15
2018-07-27T19:36:29.242Z,23.88
2018-07-27T19:38:07.229Z,23.64
2018-07-27T19:39:49.450Z,23.27
2018-07-27T19:41:26.094Z,23.78
2018-07-27T19:43:02.518Z,23.22
2018-07-27T19:44:42.563Z,23.25
2018-07-27T19:46:21.500Z,23.65
2018-07-27T19:47:57.784Z,23.20
2018-07-27T19:49:34.507Z,23.50
2018-07-27T19:51:11.306Z,23.73
2018-07-27T19:52:49.104Z,23.26
2018-07-27T19:54:26.182Z,24.10
2018-07-27T19:56:03.923Z,23.34
2018-07-27T19:57:41.585Z,23.20
2018-07-27T19:59:18.533Z,23.51
2018-07-27T20:00:55.377Z,23.52
2018-07-27T20:02:38.006Z,23.58
2018-07-27T20:04:16.169Z,23.39
2018-07-27T20:05:53.173Z,23.42
2018-07-27T20:07:33.539Z,23.75
2018-07-27T20:09:11.302Z,24.24
2018-07-27T20:10:48.368Z,23.49
2018-07-27T20:12:24.890Z,23.94
2018-07-27T20:14:02.325Z,24.31
2018-07-27T20:15:39.805Z,24.30
2018-07-27T20:17:17.253Z,23.96
2018-07-27T20:18:56.446Z,23.80
2018-07-27T20:20:37.155Z,24.11
2018-07-27T20:22:14.245Z,23.48
2018-07-27T20:23:52.639Z,24.10
2018-07-27T20:25:31.560Z,23.63
2018-07-27T20:27:09.880Z,23.59
2018-07-27T20:28:47.159Z,23.54
2018-07-27T20:30:30.903Z,24.05
2018-07-27T20:32:07.911Z,24.19
2018-07-27T20:33:45.102Z,24.55
2018-07-27T20:35:22.711Z,23.96
2018-07-27T20:37:00.520Z,24.00
2018-07-27T20:38:38.302Z,23.65
2018-07-27T20:40:15.969Z,23.98
2018-07-27T20:41:54.310Z,23.68
2018-07-27T20:43:31.697Z,24.54
2018-07-27T20:45:09.300Z,24.71
2018-07-27T20:46:45.958Z,24.00
2018-07-27T20:48:22.371Z,24.21
2018-07-27T20:49:59.980Z,24.33
2018-07-27T20:51:38.964Z,24.34
2018-07-27T20:53:15.494Z,24.74
2018-07-27T20:54:53.920Z,24.58
2018-07-27T20:56:32.972Z,24.17
2018-07-27T20:58:11.852Z,24.85
2018-07-27T20:59:48.992Z,24.45
2018-07-27T21:01:25.780Z,24.98
2018-07-27T21:03:05.280Z,24.41
2018-07-27T21:04:43.488Z,24.47
2018-07-27T21:06:21.978Z,24.93
2018-07-27T21:08:04.857Z,24.59
2018-07-27T21:09:41.965Z,24.09
2018-07-27T21:11:20.424Z,24.11
2018-07-27T21:12:57.002Z,24.47
2018-07-27T21:14:33.593Z,24.36
2018-07-27T21:16:14.423Z,24.22
2018-07-27T21:17:54.085Z,24.32
2018-07-27T21:19:33.570Z,25.13
2018-07-27T21:21:10.258Z,24.65
2018-07-27T21:22:48.956Z,24.59
2018-07-27T21:24:25.446Z,24.58